Welcome to our new website - Welkom op onze vernieuwde website - Bienvenue sur notre nouveau site web - Willkommen auf unserer neuen Website


Onweer radar Meer informatie blitzortung!


Regen radar Meer informatie rain snow radar


Andere websites:

Onze vorige site

Leuven Template



METAR rapporten vliegvelden

   
EHGG - Leeuwarden
Gewijzigd: 11-12-2019 06:55
Bewolking  
Bewolking  
   Wind: ZZW 16.7 km/h
Wind: ZZW 16.7 km/h
Temperatuur: 6°C
Voelt als: 3°C
Dauwpunt: 6°C
Vochtigheid: 100%
Barometer: 1006 hPa
Bewolking: Bewolking
Zicht: meer dan 10 km
Bewolking: Gedeeltelijk bewolkt 600 ft,
Grotendeels bewolkt 700 ft,
Bewolking 900 ft
EHGG 110555Z AUTO 21009KT 9999 SCT006 BKN007 OVC009 06/06 Q1006 TEMPO 7000 DZRA
EHGG - Terschelling
Gewijzigd: 11-12-2019 06:55
Bewolking  
Bewolking  
   Wind: ZZW 16.7 km/h
Wind: ZZW 16.7 km/h
Temperatuur: 6°C
Voelt als: 3°C
Dauwpunt: 6°C
Vochtigheid: 100%
Barometer: 1006 hPa
Bewolking: Bewolking
Zicht: meer dan 10 km
Bewolking: Gedeeltelijk bewolkt 600 ft,
Grotendeels bewolkt 700 ft,
Bewolking 900 ft
EHGG 110555Z AUTO 21009KT 9999 SCT006 BKN007 OVC009 06/06 Q1006 TEMPO 7000 DZRA
EHAM - Amsterdam
Gewijzigd: 11-12-2019 06:55
Gedeeltelijk bewolkt  
Gedeeltelijk bewolkt  
   Wind: ZZW 14.8 km/h
Wind: ZZW 14.8 km/h
Temperatuur: 7°C
Voelt als: 4°C
Dauwpunt: 6°C
Vochtigheid: 93%
Barometer: 1007 hPa
Bewolking: Gedeeltelijk bewolkt
Zicht: meer dan 10 km
Bewolking: Gedeeltelijk bewolkt 2200 ft
EHAM 110555Z 21008KT 9999 SCT022 07/06 Q1007 NOSIG
EHBK - Maastricht
Gewijzigd: 11-12-2019 06:55
Light Showers, Regen, Grotendeels bewolkt  
Light Showers, Regen, Grotendeels bewolkt  
   Wind: ZZW 24.1 km/h
Wind: ZZW 24.1 km/h
Temperatuur: 5°C
Voelt als: 1°C
Dauwpunt: 4°C
Vochtigheid: 93%
Barometer: 1010 hPa
Bewolking: Grotendeels bewolkt
Zicht: meer dan 10 km
Bewolking: Licht bewolkt 700 ft,
Gedeeltelijk bewolkt 900 ft,
Grotendeels bewolkt 1000 ft,
Licht bewolkt 1500 ft
EHBK 110555Z AUTO 20013KT 9999 -SHRA FEW007 SCT009 BKN010 FEW015CB 05/04 Q1010 TEMPO 7000 -RADZ BKN008
  

Script ontwikkeld door  Saratoga-weather.org Aangepast voor de template door  Weerstation Leuven

U vindt ons ook hier:

European Weather Network

Weather Underground

AWEKAS

Apparatuur in gebruik:

Weerstation
Davis VP2

Weerprogramma
Cumulus

Davis VP2

Cumulus